createdAt,value
2017-04-21T00:00:25.504Z,57.71
2017-04-21T00:01:06.003Z,57.62
2017-04-21T00:01:46.515Z,58.47
2017-04-21T00:02:26.955Z,58.28
2017-04-21T00:03:07.487Z,58.47
2017-04-21T00:03:47.966Z,58.28
2017-04-21T00:04:28.446Z,58.37
2017-04-21T00:05:08.931Z,58.09
2017-04-21T00:05:49.447Z,58.37
2017-04-21T00:06:29.912Z,58.37
2017-04-21T00:07:10.418Z,58.76
2017-04-21T00:07:50.966Z,58.66
2017-04-21T00:08:31.423Z,58.66
2017-04-21T00:09:11.899Z,58.66
2017-04-21T00:09:52.388Z,58.66
2017-04-21T00:10:32.893Z,58.57
2017-04-21T00:11:13.384Z,58.28
2017-04-21T00:11:53.938Z,58.47
2017-04-21T00:12:34.369Z,58.47
2017-04-21T00:13:14.880Z,58.37
2017-04-21T00:13:55.359Z,58.57
2017-04-21T00:14:35.913Z,58.57
2017-04-21T00:15:16.374Z,58.76
2017-04-21T00:15:56.862Z,58.95
2017-04-21T00:16:37.360Z,58.95
2017-04-21T00:17:17.867Z,58.85
2017-04-21T00:17:58.381Z,58.76
2017-04-21T00:18:38.868Z,58.95
2017-04-21T00:19:19.369Z,59.05
2017-04-21T00:19:59.813Z,59.61
2017-04-21T00:20:40.373Z,59.42
2017-04-21T00:21:20.823Z,59.33
2017-04-21T00:22:01.315Z,59.42
2017-04-21T00:22:41.831Z,60.16
2017-04-21T00:23:22.323Z,60.44
2017-04-21T00:24:02.871Z,60.66
2017-04-21T00:24:43.325Z,60.18
2017-04-21T00:25:23.837Z,60.18
2017-04-21T00:26:04.369Z,60.38
2017-04-21T00:26:44.833Z,60.75
2017-04-21T00:27:25.291Z,60.57
2017-04-21T00:28:05.810Z,60.57
2017-04-21T00:28:46.273Z,60.75
2017-04-21T00:29:26.767Z,60.66
2017-04-21T00:30:07.271Z,60.57
2017-04-21T00:30:47.776Z,60.47
2017-04-21T00:31:28.270Z,60.75
2017-04-21T00:32:08.781Z,60.75
2017-04-21T00:32:49.269Z,60.47
2017-04-21T00:33:29.785Z,60.57
2017-04-21T00:34:10.262Z,61.04
2017-04-21T00:34:50.798Z,60.66
2017-04-21T00:35:31.259Z,60.57
2017-04-21T00:37:19.257Z,60.47
2017-04-21T00:37:59.768Z,60.94
2017-04-21T00:38:40.285Z,60.94
2017-04-21T00:39:20.788Z,61.04
2017-04-21T00:40:01.313Z,60.82
2017-04-21T00:40:41.823Z,60.94
2017-04-21T00:41:22.351Z,60.85
2017-04-21T00:42:02.839Z,61.01
2017-04-21T00:42:43.344Z,60.82
2017-04-21T00:43:23.851Z,61.01
2017-04-21T00:44:04.365Z,60.82
2017-04-21T00:44:44.863Z,61.01
2017-04-21T00:45:25.344Z,61.2
2017-04-21T00:46:05.857Z,61.2
2017-04-21T00:46:46.349Z,60.91
2017-04-21T00:47:26.841Z,60.63
2017-04-21T00:48:07.344Z,60.91
2017-04-21T00:48:47.814Z,60.82
2017-04-21T00:49:28.310Z,60.82
2017-04-21T00:50:08.797Z,61.01
2017-04-21T00:50:49.268Z,60.35
2017-04-21T00:51:29.768Z,61.1
2017-04-21T00:52:10.244Z,60.82
2017-04-21T00:52:50.737Z,60.91
2017-04-21T00:53:31.273Z,60.91
2017-04-21T00:54:11.736Z,60.91
2017-04-21T00:54:52.259Z,60.63
2017-04-21T00:55:32.755Z,61.2
2017-04-21T00:56:13.271Z,60.44
2017-04-21T00:56:53.749Z,61.1
2017-04-21T00:57:34.259Z,60.63
2017-04-21T00:58:14.801Z,60.44
2017-04-21T00:58:55.254Z,61.01
2017-04-21T00:59:35.766Z,61.01
2017-04-21T01:00:16.252Z,60.82
2017-04-21T01:00:56.747Z,61.1
2017-04-21T01:01:37.232Z,61.01
2017-04-21T01:02:17.751Z,60.53
2017-04-21T01:02:58.269Z,60.63
2017-04-21T01:03:38.779Z,61.01
2017-04-21T01:04:19.294Z,60.53
2017-04-21T01:04:59.776Z,60.44
2017-04-21T01:05:40.215Z,60.82
2017-04-21T01:06:20.737Z,61.29
2017-04-21T01:07:01.242Z,60.44
2017-04-21T01:07:41.763Z,60.16
2017-04-21T01:08:22.256Z,61.01
2017-04-21T01:09:02.771Z,60.82
2017-04-21T01:09:43.254Z,60.82
2017-04-21T01:10:23.747Z,60.82
2017-04-21T01:11:04.267Z,60.91
2017-04-21T01:11:44.748Z,61.1
2017-04-21T01:12:25.271Z,60.82
2017-04-21T01:13:05.759Z,61.2
2017-04-21T01:13:46.275Z,61.1
2017-04-21T01:14:26.764Z,61.2
2017-04-21T01:15:07.410Z,60.91
2017-04-21T01:15:47.940Z,60.82
2017-04-21T01:16:28.393Z,60.82
2017-04-21T01:17:08.920Z,60.72
2017-04-21T01:17:49.385Z,61.2
2017-04-21T01:18:29.905Z,60.35
2017-04-21T01:19:10.399Z,60.63
2017-04-21T01:19:50.909Z,60.53
2017-04-21T01:20:31.412Z,60.53
2017-04-21T01:21:11.943Z,60.53
2017-04-21T01:21:52.422Z,60.72
2017-04-21T01:22:32.881Z,60.06
2017-04-21T01:23:13.386Z,60.44
2017-04-21T01:23:53.911Z,60.72
2017-04-21T01:24:34.421Z,60.44
2017-04-21T01:25:14.864Z,60.53
2017-04-21T01:25:55.376Z,59.96
2017-04-21T01:26:35.865Z,60.44
2017-04-21T01:27:16.427Z,60.53
2017-04-21T01:27:56.868Z,60.35
2017-04-21T01:28:37.389Z,61.2
2017-04-21T01:29:17.915Z,60.91
2017-04-21T01:29:58.325Z,61.1
2017-04-21T01:30:38.819Z,61.1
2017-04-21T01:31:19.334Z,60.72
2017-04-21T01:31:59.817Z,59.77
2017-04-21T01:32:40.336Z,60.35
2017-04-21T01:33:20.833Z,59.96
2017-04-21T01:34:01.358Z,60.35
2017-04-21T01:34:41.846Z,60.53
2017-04-21T01:35:22.357Z,60.63
2017-04-21T01:36:02.877Z,60.16
2017-04-21T01:36:43.387Z,60.35
2017-04-21T01:37:23.905Z,59.87
2017-04-21T01:38:04.405Z,59.77
2017-04-21T01:38:44.899Z,59.58
2017-04-21T01:39:25.397Z,59.58
2017-04-21T01:40:05.933Z,59.77
2017-04-21T01:40:46.435Z,59.11
2017-04-21T01:41:26.926Z,59.2
2017-04-21T01:42:07.400Z,59.39
2017-04-21T01:42:47.897Z,59.58
2017-04-21T01:43:28.368Z,59.49
2017-04-21T01:44:08.913Z,59.39
2017-04-21T01:44:49.390Z,59.49
2017-04-21T01:45:29.885Z,59.77
2017-04-21T01:46:10.378Z,59.01
2017-04-21T01:46:50.893Z,59.39
2017-04-21T01:47:31.404Z,59.49
2017-04-21T01:48:11.905Z,58.92
2017-04-21T01:48:52.411Z,59.77
2017-04-21T01:49:32.927Z,59.01
2017-04-21T01:50:13.383Z,59.58
2017-04-21T01:50:53.877Z,59.11
2017-04-21T01:51:34.343Z,59.01
2017-04-21T01:52:14.830Z,58.63
2017-04-21T01:52:55.305Z,59.11
2017-04-21T01:53:35.801Z,58.63
2017-04-21T01:54:16.261Z,58.63
2017-04-21T01:54:56.754Z,58.44
2017-04-21T01:55:37.238Z,58.73
2017-04-21T01:56:17.736Z,58.16
2017-04-21T01:56:58.238Z,58.63
2017-04-21T01:57:38.755Z,58.16
2017-04-21T01:58:19.261Z,58.54
2017-04-21T01:58:59.780Z,58.25
2017-04-21T01:59:40.257Z,57.5
2017-04-21T02:00:20.759Z,57.87
2017-04-21T02:01:01.272Z,57.78
2017-04-21T02:01:41.738Z,57.4
2017-04-21T02:02:22.253Z,57.02
2017-04-21T02:03:02.726Z,57.68
2017-04-21T02:03:43.260Z,56.83
2017-04-21T02:04:23.749Z,56.83
2017-04-21T02:05:04.236Z,57.3
2017-04-21T02:05:44.728Z,57.11
2017-04-21T02:06:25.165Z,57.11
2017-04-21T02:07:05.673Z,57.21
2017-04-21T02:07:46.167Z,57.11
2017-04-21T02:08:26.629Z,57.21
2017-04-21T02:09:07.185Z,56.54
2017-04-21T02:09:47.634Z,56.63
2017-04-21T02:10:28.143Z,56.54
2017-04-21T02:11:08.638Z,55.97
2017-04-21T02:11:49.156Z,56.16
2017-04-21T02:12:29.625Z,56.54
2017-04-21T02:13:10.131Z,55.78
2017-04-21T02:13:50.618Z,56.73
2017-04-21T02:14:31.132Z,56.35
2017-04-21T02:15:11.620Z,56.35
2017-04-21T02:15:52.123Z,56.35
2017-04-21T02:16:32.608Z,56.45
2017-04-21T02:17:13.120Z,56.45
2017-04-21T02:17:53.610Z,56.35
2017-04-21T02:18:34.105Z,56.26
2017-04-21T02:19:14.586Z,56.16
2017-04-21T02:19:55.095Z,56.42
2017-04-21T02:20:35.611Z,56.89
2017-04-21T02:21:16.061Z,56.83
2017-04-21T02:21:56.575Z,57.02
2017-04-21T02:22:37.071Z,56.32
2017-04-21T02:23:17.572Z,57.09
2017-04-21T02:23:58.098Z,57.11
2017-04-21T02:24:38.590Z,56.73
2017-04-21T02:25:19.070Z,57.21
2017-04-21T02:25:59.554Z,57.3
2017-04-21T02:26:40.065Z,57.4
2017-04-21T02:27:20.562Z,57.11
2017-04-21T02:28:01.026Z,56.83
2017-04-21T02:28:41.508Z,57.11
2017-04-21T02:29:22.013Z,57.11
2017-04-21T02:30:02.541Z,57.02
2017-04-21T02:30:43.033Z,57.02
2017-04-21T02:31:23.518Z,56.83
2017-04-21T02:32:04.022Z,57.21
2017-04-21T02:32:44.540Z,57.4
2017-04-21T02:33:25.042Z,57.28
2017-04-21T02:34:05.563Z,57.65
2017-04-21T02:34:46.077Z,57.18
2017-04-21T02:35:26.580Z,57.21
2017-04-21T02:36:07.067Z,57.28
2017-04-21T02:36:47.558Z,57.21
2017-04-21T02:37:28.070Z,57.3
2017-04-21T02:38:08.583Z,57.18
2017-04-21T02:38:49.088Z,57.21
2017-04-21T02:39:29.599Z,57.75
2017-04-21T02:40:10.115Z,57.56
2017-04-21T02:40:50.601Z,57.68
2017-04-21T02:41:31.121Z,57.46
2017-04-21T02:42:11.617Z,57.21
2017-04-21T02:42:52.089Z,57.11
2017-04-21T02:43:32.597Z,57.11
2017-04-21T02:44:13.101Z,57.02
2017-04-21T02:44:53.603Z,57.02
2017-04-21T02:45:34.224Z,56.92
2017-04-21T02:46:14.726Z,56.73
2017-04-21T02:46:55.221Z,56.92
2017-04-21T02:47:35.699Z,57.02
2017-04-21T02:48:16.181Z,57.02
2017-04-21T02:48:56.666Z,56.63
2017-04-21T02:49:37.169Z,56.45
2017-04-21T02:50:17.640Z,56.73
2017-04-21T02:50:58.153Z,56.54
2017-04-21T02:51:38.665Z,56.63
2017-04-21T02:52:19.158Z,56.73
2017-04-21T02:52:59.650Z,57.02
2017-04-21T02:53:40.140Z,56.73
2017-04-21T02:54:20.655Z,56.92
2017-04-21T02:55:01.137Z,56.73
2017-04-21T02:55:41.686Z,56.73
2017-04-21T02:56:22.145Z,56.73
2017-04-21T02:57:02.664Z,57.21
2017-04-21T02:57:43.161Z,57.3
2017-04-21T02:58:23.623Z,57.11
2017-04-21T02:59:04.126Z,57.3
2017-04-21T02:59:44.616Z,57.11
2017-04-21T03:00:25.129Z,56.83
2017-04-21T03:01:05.626Z,56.83
2017-04-21T03:01:46.149Z,56.73
2017-04-21T03:02:26.657Z,57.11
2017-04-21T03:03:07.134Z,56.83
2017-04-21T03:03:47.654Z,57.02
2017-04-21T03:04:28.140Z,56.92
2017-04-21T03:05:08.644Z,56.45
2017-04-21T03:05:49.133Z,56.73
2017-04-21T03:06:29.669Z,56.35
2017-04-21T03:07:10.173Z,56.63
2017-04-21T03:07:50.632Z,56.45
2017-04-21T03:08:31.148Z,56.63
2017-04-21T03:09:11.651Z,56.45
2017-04-21T03:09:52.163Z,56.73
2017-04-21T03:10:32.662Z,56.54
2017-04-21T03:11:13.156Z,56.73
2017-04-21T03:11:53.666Z,56.63
2017-04-21T03:12:34.165Z,56.73
2017-04-21T03:13:14.684Z,55.69
2017-04-21T03:13:55.151Z,56.07
2017-04-21T03:14:35.660Z,56.07
2017-04-21T03:15:16.167Z,55.97
2017-04-21T03:15:56.670Z,55.69
2017-04-21T03:16:37.182Z,56.04
2017-04-21T03:17:17.685Z,56.51
2017-04-21T03:17:58.167Z,56.61
2017-04-21T03:18:38.672Z,57.18
2017-04-21T03:19:19.174Z,57.09
2017-04-21T03:19:59.685Z,56.99
2017-04-21T03:20:40.206Z,57.28
2017-04-21T03:21:20.718Z,57.43
2017-04-21T03:22:01.208Z,57.46
2017-04-21T03:22:41.705Z,57.46
2017-04-21T03:23:22.219Z,57.43
2017-04-21T03:24:02.718Z,57.43
2017-04-21T03:24:43.209Z,58.32
2017-04-21T03:25:23.727Z,58.61
2017-04-21T03:26:04.212Z,58.7
2017-04-21T03:26:44.703Z,58.8
2017-04-21T03:27:25.214Z,58.7
2017-04-21T03:28:05.728Z,58.32
2017-04-21T03:28:46.220Z,58.32
2017-04-21T03:29:26.727Z,58.22
2017-04-21T03:30:07.216Z,57.94
2017-04-21T03:30:47.781Z,58.22
2017-04-21T03:31:28.271Z,56.8
2017-04-21T03:32:08.772Z,56.61
2017-04-21T03:32:49.266Z,57.18
2017-04-21T03:33:29.766Z,57.18
2017-04-21T03:34:10.273Z,57.37
2017-04-21T03:34:50.777Z,56.89
2017-04-21T03:35:31.259Z,57.46
2017-04-21T03:36:11.754Z,57.56
2017-04-21T03:36:52.239Z,57.84
2017-04-21T03:37:32.758Z,58.03
2017-04-21T03:38:13.240Z,58.32
2017-04-21T03:38:53.754Z,58.22
2017-04-21T03:39:34.266Z,57.46
2017-04-21T03:40:14.751Z,57.65
2017-04-21T03:40:55.249Z,57.37
2017-04-21T03:41:35.769Z,57.11
2017-04-21T03:42:16.281Z,57.11
2017-04-21T03:42:56.768Z,56.7
2017-04-21T03:43:37.278Z,55.94
2017-04-21T03:44:17.790Z,56.7
2017-04-21T03:44:58.328Z,56.61
2017-04-21T03:45:38.830Z,56.7
2017-04-21T03:46:19.335Z,57.43
2017-04-21T03:46:59.859Z,57.34
2017-04-21T03:47:40.352Z,57.34
2017-04-21T03:48:20.829Z,57.72
2017-04-21T03:49:01.446Z,57.43
2017-04-21T03:49:41.932Z,58.29
2017-04-21T03:50:22.419Z,58.29
2017-04-21T03:51:02.911Z,59.05
2017-04-21T03:51:43.429Z,59.05
2017-04-21T03:52:23.898Z,58.48
2017-04-21T03:53:04.400Z,58.48
2017-04-21T03:53:44.908Z,58.48
2017-04-21T03:54:25.393Z,58.61
2017-04-21T03:55:05.909Z,57.46
2017-04-21T03:55:46.363Z,57.56
2017-04-21T03:56:26.889Z,57.37
2017-04-21T03:57:07.345Z,57.18
2017-04-21T03:57:47.831Z,56.89
2017-04-21T03:58:28.322Z,56.99
2017-04-21T03:59:08.805Z,56.7
2017-04-21T03:59:49.297Z,56.96
2017-04-21T04:00:29.824Z,57.34
2017-04-21T04:01:10.320Z,58.2
2017-04-21T04:01:50.793Z,58.76
2017-04-21T04:02:31.314Z,58.89
2017-04-21T04:03:11.826Z,58.61
2017-04-21T04:03:52.300Z,58.61
2017-04-21T04:04:32.805Z,58.8
2017-04-21T04:05:13.285Z,58.8
2017-04-21T04:05:53.852Z,58.51
2017-04-21T04:06:34.362Z,58.32
2017-04-21T04:07:14.855Z,57.46
2017-04-21T04:07:55.351Z,57.56
2017-04-21T04:08:35.863Z,57.18
2017-04-21T04:09:16.333Z,57.37
2017-04-21T04:09:56.823Z,57.3
2017-04-21T04:10:37.329Z,57.18
2017-04-21T04:11:17.817Z,57.02
2017-04-21T04:11:58.303Z,57.21
2017-04-21T04:12:38.788Z,56.73
2017-04-21T04:13:19.284Z,57.02
2017-04-21T04:13:59.738Z,56.45
2017-04-21T04:14:40.227Z,56.73
2017-04-21T04:15:20.754Z,56.35
2017-04-21T04:16:01.207Z,56.35
2017-04-21T04:16:41.710Z,56.26
2017-04-21T04:17:22.174Z,56.26
2017-04-21T04:18:02.652Z,56.07
2017-04-21T04:18:43.163Z,55.78
2017-04-21T04:19:23.651Z,56.26
2017-04-21T04:20:04.202Z,55.88
2017-04-21T04:20:44.649Z,55.97
2017-04-21T04:21:25.192Z,55.4
2017-04-21T04:22:05.674Z,55.4
2017-04-21T04:22:46.156Z,55.3
2017-04-21T04:23:26.643Z,55.69
2017-04-21T04:24:07.119Z,55.3
2017-04-21T04:24:47.623Z,55.21
2017-04-21T04:25:28.133Z,55.4
2017-04-21T04:26:08.678Z,55.59
2017-04-21T04:26:49.136Z,55.21
2017-04-21T04:27:29.622Z,55.69
2017-04-21T04:28:10.103Z,56.13
2017-04-21T04:28:50.605Z,56.23
2017-04-21T04:29:31.111Z,56.32
2017-04-21T04:30:11.651Z,56.7
2017-04-21T04:30:52.079Z,56.7
2017-04-21T04:31:32.608Z,57.09
2017-04-21T04:32:13.072Z,58.03
2017-04-21T04:32:53.567Z,58.1
2017-04-21T04:33:34.085Z,58.76
2017-04-21T04:34:14.577Z,58.48
2017-04-21T04:34:55.048Z,58.76
2017-04-21T04:35:35.549Z,58.58
2017-04-21T04:36:16.061Z,58.41
2017-04-21T04:36:56.530Z,58.7
2017-04-21T04:37:37.018Z,58.51
2017-04-21T04:38:17.515Z,58.51
2017-04-21T04:38:58.023Z,58.41
2017-04-21T04:39:38.534Z,58.41
2017-04-21T04:40:19.040Z,58.8
2017-04-21T04:40:59.547Z,58.41
2017-04-21T04:41:40.035Z,58.32
2017-04-21T04:42:20.516Z,58.41
2017-04-21T04:43:01.034Z,58.22
2017-04-21T04:43:41.572Z,58.41
2017-04-21T04:44:22.043Z,58.61
2017-04-21T04:45:02.552Z,58.13
2017-04-21T04:45:43.061Z,58.22
2017-04-21T04:46:23.556Z,58.32
2017-04-21T04:47:04.064Z,57.18
2017-04-21T04:47:44.580Z,57.28
2017-04-21T04:48:25.057Z,57.37
2017-04-21T04:49:05.568Z,57.84
2017-04-21T04:49:46.117Z,57.46
2017-04-21T04:50:26.591Z,57.65
2017-04-21T04:51:07.084Z,58.03
2017-04-21T04:51:47.585Z,58.51
2017-04-21T04:52:28.102Z,57.87
2017-04-21T04:53:08.600Z,57.97
2017-04-21T04:53:49.173Z,57.5
2017-04-21T04:54:29.630Z,57.3
2017-04-21T04:55:10.130Z,57.02
2017-04-21T04:55:50.639Z,56.73
2017-04-21T04:56:31.085Z,56.54
2017-04-21T04:57:11.628Z,56.83
2017-04-21T04:57:52.095Z,56.73
2017-04-21T04:58:32.595Z,56.73
2017-04-21T04:59:13.083Z,56.61
2017-04-21T04:59:53.577Z,56.92
2017-04-21T05:00:34.088Z,56.99
2017-04-21T05:01:14.586Z,57.02
2017-04-21T05:01:55.036Z,57.02
2017-04-21T05:02:35.541Z,57.21
2017-04-21T05:03:15.993Z,57.02
2017-04-21T05:03:56.491Z,56.83
2017-04-21T05:04:36.980Z,57.11
2017-04-21T05:05:17.530Z,56.54
2017-04-21T05:05:57.981Z,56.63
2017-04-21T05:06:38.482Z,56.35
2017-04-21T05:07:18.943Z,55.97
2017-04-21T05:07:59.456Z,56.26
2017-04-21T05:08:39.916Z,56.16
2017-04-21T05:09:20.434Z,55.78
2017-04-21T05:10:00.884Z,55.69
2017-04-21T05:10:41.384Z,55.88
2017-04-21T05:11:21.892Z,55.69
2017-04-21T05:12:02.382Z,56.26
2017-04-21T05:12:42.865Z,56.45
2017-04-21T05:13:23.297Z,56.63
2017-04-21T05:14:03.796Z,56.45
2017-04-21T05:14:44.291Z,56.35
2017-04-21T05:15:24.829Z,56.73
2017-04-21T05:16:05.325Z,55.69
2017-04-21T05:16:45.799Z,55.59
2017-04-21T05:17:26.355Z,55.5
2017-04-21T05:18:06.810Z,55.3
2017-04-21T05:18:47.310Z,55.88
2017-04-21T05:19:28.008Z,55.02
2017-04-21T05:20:08.577Z,55.69
2017-04-21T05:20:49.072Z,55.3
2017-04-21T05:21:29.578Z,56.16
2017-04-21T05:22:10.074Z,57.11
2017-04-21T05:22:50.568Z,57.59
2017-04-21T05:23:31.059Z,57.11
2017-04-21T05:24:11.538Z,57.68
2017-04-21T05:24:52.054Z,57.5
2017-04-21T05:25:32.765Z,57.5
2017-04-21T05:26:13.304Z,58.25
2017-04-21T05:26:53.755Z,57.4
2017-04-21T05:27:34.249Z,57.11
2017-04-21T05:28:14.736Z,56.63
2017-04-21T05:28:55.226Z,57.11
2017-04-21T05:29:35.796Z,58.63
2017-04-21T05:30:16.312Z,58.83
2017-04-21T05:30:57.262Z,59.49
2017-04-21T05:31:37.773Z,59.77
2017-04-21T05:32:18.266Z,59.58
2017-04-21T05:32:58.800Z,59.77
2017-04-21T05:33:39.252Z,59.39
2017-04-21T05:34:19.728Z,59.11
2017-04-21T05:35:00.234Z,59.96
2017-04-21T05:35:40.745Z,61.2
2017-04-21T05:36:21.226Z,60.06
2017-04-21T05:37:01.669Z,59.58
2017-04-21T05:37:42.157Z,59.68
2017-04-21T05:38:22.692Z,58.73
2017-04-21T05:39:03.161Z,57.97
2017-04-21T05:39:43.674Z,58.25
2017-04-21T05:40:24.146Z,57.87
2017-04-21T05:41:04.628Z,58.63
2017-04-21T05:41:45.162Z,59.39
2017-04-21T05:42:25.631Z,59.33
2017-04-21T05:43:06.173Z,58.95
2017-04-21T05:43:46.620Z,58.47
2017-04-21T05:44:27.198Z,57.62
2017-04-21T05:45:07.655Z,58.85
2017-04-21T05:45:48.157Z,57.9
2017-04-21T05:46:28.687Z,56.48
2017-04-21T05:47:09.180Z,56.1
2017-04-21T05:47:49.643Z,56.85
2017-04-21T05:48:30.124Z,56.76
2017-04-21T05:49:10.645Z,58.47
2017-04-21T05:49:51.114Z,59.99
2017-04-21T05:50:31.693Z,60.47
2017-04-21T05:51:12.401Z,59.8
2017-04-21T05:51:52.933Z,58.28
2017-04-21T05:52:39.068Z,58.57
2017-04-21T05:53:19.501Z,59.8
2017-04-21T05:53:59.981Z,65.51
2017-04-21T05:54:40.476Z,70.17
2017-04-21T05:55:20.941Z,73.34
2017-04-21T05:56:01.673Z,74.29
2017-04-21T05:56:43.053Z,65.13
2017-04-21T05:57:23.499Z,58.95
2017-04-21T05:58:04.008Z,60.75
2017-04-21T05:58:44.475Z,67.79
2017-04-21T05:59:24.960Z,71.69
2017-04-21T06:00:05.445Z,67.63
2017-04-21T06:00:45.945Z,62.88
2017-04-21T06:01:26.429Z,59.61
2017-04-21T06:02:06.946Z,58.5
2017-04-21T06:02:47.393Z,57.14
2017-04-21T06:03:27.938Z,56.76
2017-04-21T06:04:08.418Z,56.29
2017-04-21T06:04:48.880Z,56.57
2017-04-21T06:05:29.442Z,57.04
2017-04-21T06:06:09.865Z,55.81
2017-04-21T06:06:50.674Z,56
2017-04-21T06:07:30.894Z,56.19
2017-04-21T06:08:11.369Z,56.48
2017-04-21T06:08:51.956Z,55.9
2017-04-21T06:09:32.361Z,56.19
2017-04-21T06:10:12.888Z,56.95
2017-04-21T06:10:53.329Z,57.14
2017-04-21T06:11:34.104Z,56.76
2017-04-21T06:13:27.426Z,55.81
2017-04-21T06:14:07.876Z,56.57
2017-04-21T06:14:48.356Z,56.29
2017-04-21T06:15:29.449Z,57.33
2017-04-21T06:16:09.993Z,59.27
2017-04-21T06:16:50.595Z,58.31
2017-04-21T06:17:31.092Z,58.69
2017-04-21T06:18:11.900Z,59.64
2017-04-21T06:18:52.464Z,61.64
2017-04-21T06:19:32.999Z,63.73
2017-04-21T06:20:13.461Z,64.59
2017-04-21T06:20:53.941Z,65.92
2017-04-21T06:21:34.427Z,71.38
2017-04-21T06:22:14.944Z,75.95
2017-04-21T06:22:55.595Z,84.7
2017-04-21T06:23:36.113Z,87.6
2017-04-21T06:24:16.664Z,91.13
2017-04-21T06:24:57.147Z,90.84
2017-04-21T06:25:37.615Z,83.8
2017-04-21T06:26:18.087Z,86.94
2017-04-21T06:26:58.570Z,88.7
2017-04-21T06:27:39.153Z,83.13
2017-04-21T06:28:19.747Z,80.27
2017-04-21T06:29:00.242Z,81.55
2017-04-21T06:29:40.725Z,77.07
2017-04-21T06:30:21.257Z,83.74
2017-04-21T06:31:01.727Z,78.12
2017-04-21T06:31:42.267Z,71.22
2017-04-21T06:32:22.811Z,64.18
2017-04-21T06:33:03.311Z,63.13
2017-04-21T06:33:43.753Z,62.37
2017-04-21T06:34:24.233Z,59.61
2017-04-21T06:35:04.723Z,57.51
2017-04-21T06:35:45.418Z,59.7
2017-04-21T06:36:25.972Z,77.93
2017-04-21T06:37:06.718Z,82.89
2017-04-21T06:37:47.274Z,80.88
2017-04-21T06:38:27.853Z,86.6
2017-04-21T06:39:08.366Z,92.74
2017-04-21T06:39:48.825Z,91.79
2017-04-21T06:40:29.437Z,90.84
2017-04-21T06:41:09.930Z,84.92
2017-04-21T06:41:50.448Z,83.78
2017-04-21T06:42:30.969Z,86.78
2017-04-21T06:43:11.468Z,88.12
2017-04-21T06:43:52.003Z,85.5
2017-04-21T06:44:32.447Z,81.4
2017-04-21T06:45:13.523Z,81.63
2017-04-21T06:45:53.973Z,73.43
2017-04-21T06:46:34.475Z,73.11
2017-04-21T06:47:15.211Z,66.24
2017-04-21T06:47:57.473Z,58.04
2017-04-21T06:48:38.048Z,57.19
2017-04-21T06:49:18.567Z,55.28
2017-04-21T06:49:59.018Z,52.71
2017-04-21T06:50:39.798Z,51.92
2017-04-21T06:51:20.155Z,53.25
2017-04-21T06:52:00.844Z,53.73
2017-04-21T06:52:43.417Z,53.83
2017-04-21T06:53:23.991Z,54.88
2017-04-21T06:54:05.562Z,53.76
2017-04-21T06:54:46.290Z,53.25
2017-04-21T06:55:26.929Z,51.73
2017-04-21T06:56:07.913Z,51.47
2017-04-21T06:56:48.386Z,51.35
2017-04-21T06:57:29.104Z,50.11
2017-04-21T06:58:09.552Z,50.78
2017-04-21T06:58:50.004Z,50.21
2017-04-21T06:59:30.510Z,50.68
2017-04-21T07:00:10.995Z,52.59
2017-04-21T07:00:51.612Z,53.64
2017-04-21T07:01:32.572Z,53.83
2017-04-21T07:02:13.144Z,51.82
2017-04-21T07:02:53.634Z,52.11
2017-04-21T07:03:34.348Z,51.64
2017-04-21T07:04:15.267Z,51.35
2017-04-21T07:04:55.760Z,52.11
2017-04-21T07:05:36.498Z,52.8
2017-04-21T07:06:17.331Z,52.8
2017-04-21T07:06:57.727Z,53.28
2017-04-21T07:07:38.202Z,50.71
2017-04-21T07:08:18.759Z,52.23
2017-04-21T07:08:59.282Z,52.42
2017-04-21T07:09:40.853Z,55.38
2017-04-21T07:10:21.313Z,61.67
2017-04-21T07:11:01.990Z,70.67
2017-04-21T07:11:42.906Z,73.43
2017-04-21T07:12:23.927Z,82.24
2017-04-21T07:13:04.703Z,81.96
2017-04-21T07:15:18.340Z,78.14
2017-04-21T07:19:12.855Z,83.81
2017-04-21T07:19:53.762Z,73.98
2017-04-21T07:20:36.303Z,73.98
2017-04-21T07:21:17.152Z,67.97
2017-04-21T07:22:00.715Z,61.47
2017-04-21T07:23:27.917Z,55.18
2017-04-21T07:24:57.352Z,53.17
2017-04-21T07:25:37.973Z,66.44
2017-04-21T07:26:18.722Z,72.07
2017-04-21T07:26:59.426Z,75.79
2017-04-21T07:27:40.358Z,68.26
2017-04-21T07:28:20.780Z,72.68
2017-04-21T07:29:01.539Z,79.08
2017-04-21T07:29:42.098Z,81.85
2017-04-21T07:30:22.849Z,79.27
2017-04-21T07:31:03.315Z,78.13
2017-04-21T07:31:43.965Z,79.36
2017-04-21T07:32:24.464Z,70.39
2017-04-21T07:33:05.910Z,66.28
2017-04-21T07:33:46.471Z,70.01
2017-04-21T07:34:27.017Z,73.44
2017-04-21T07:35:07.464Z,71.25
2017-04-21T07:36:28.589Z,59.76
2017-04-21T07:37:08.998Z,56.89
2017-04-21T07:37:49.740Z,53.84
2017-04-21T07:38:30.350Z,49.83
2017-04-21T07:39:10.895Z,46.97
2017-04-21T07:39:51.329Z,46.58
2017-04-21T07:40:31.876Z,49.44
2017-04-21T07:41:12.378Z,50.49
2017-04-21T07:41:52.864Z,49.73
2017-04-21T07:42:33.567Z,48.42
2017-04-21T07:43:14.028Z,48.33
2017-04-21T07:43:54.601Z,48.52
2017-04-21T07:44:35.048Z,48.61
2017-04-21T07:45:15.594Z,48.42
2017-04-21T07:45:56.279Z,47.85
2017-04-21T07:46:36.745Z,48.52
2017-04-21T07:47:17.275Z,48.52
2017-04-21T07:47:57.899Z,47.18
2017-04-21T07:48:38.368Z,46.8
2017-04-21T07:49:18.878Z,46.32
2017-04-21T07:49:59.349Z,46.03
2017-04-21T07:50:39.817Z,43.55
2017-04-21T07:51:20.328Z,41.62
2017-04-21T07:52:00.776Z,43.55
2017-04-21T07:52:41.297Z,44.22
2017-04-21T07:53:21.800Z,44.31
2017-04-21T07:55:56.457Z,44.79
2017-04-21T07:56:36.961Z,44.02
2017-04-21T07:58:50.423Z,51.67
2017-04-21T07:59:31.532Z,62.97
2017-04-21T08:00:12.059Z,69.18
2017-04-21T08:00:52.553Z,70.33
2017-04-21T08:01:33.058Z,72.33
2017-04-21T08:02:13.519Z,68.61
2017-04-21T08:02:54.125Z,70.61
2017-04-21T08:03:35.266Z,73
2017-04-21T08:04:15.739Z,65.07
2017-04-21T08:04:56.237Z,64.02
2017-04-21T08:05:36.734Z,63.93
2017-04-21T08:06:17.395Z,57.04
2017-04-21T08:06:57.987Z,51.6
2017-04-21T08:07:39.301Z,48.93
2017-04-21T08:08:19.762Z,48.54
2017-04-21T08:09:41.489Z,48.16
2017-04-21T08:10:22.052Z,47.01
2017-04-21T08:11:02.484Z,44.22
2017-04-21T08:11:43.030Z,44.12
2017-04-21T08:12:23.617Z,46.51
2017-04-21T08:13:04.019Z,44.31
2017-04-21T08:13:44.539Z,43.07
2017-04-21T08:14:24.977Z,45.56
2017-04-21T08:15:05.477Z,62.68
2017-04-21T08:15:46.151Z,70.23
2017-04-21T08:16:26.513Z,69.85
2017-04-21T08:17:07.012Z,61.44
2017-04-21T08:18:28.002Z,55.52
2017-04-21T08:19:08.470Z,53.61
2017-04-21T08:19:48.975Z,61.44
2017-04-21T08:20:29.477Z,57.43
2017-04-21T08:21:09.985Z,55.13
2017-04-21T08:21:50.447Z,56.67
2017-04-21T08:22:30.943Z,57.33
2017-04-21T08:23:13.023Z,52.75
2017-04-21T08:23:53.082Z,51.7
2017-04-21T08:24:35.606Z,47.78
2017-04-21T08:25:16.139Z,47.2
2017-04-21T08:25:57.456Z,46.17
2017-04-21T08:26:38.203Z,45.12
2017-04-21T08:27:18.752Z,45.03
2017-04-21T08:27:59.726Z,44.84
2017-04-21T08:28:40.123Z,44.65
2017-04-21T08:29:20.760Z,44.24
2017-04-21T08:30:01.140Z,45.1
2017-04-21T08:32:02.170Z,40.53
2017-04-21T08:32:42.654Z,41.3
2017-04-21T08:33:25.251Z,40.13
2017-04-21T08:34:05.808Z,39.47
2017-04-21T08:36:34.642Z,55.26
2017-04-21T08:37:15.809Z,58.32
2017-04-21T08:37:58.222Z,59.94
2017-04-21T08:38:41.335Z,58.41
2017-04-21T08:39:22.317Z,55.54
2017-04-21T08:40:06.902Z,50.57
2017-04-21T08:40:49.490Z,44.36
2017-04-21T08:41:30.583Z,43.12
2017-04-21T08:42:11.549Z,42.93
2017-04-21T08:42:53.752Z,41.49
2017-04-21T08:43:35.323Z,41.58
2017-04-21T08:44:17.713Z,41.3
2017-04-21T08:44:58.768Z,39.2
2017-04-21T08:45:39.284Z,39.29
2017-04-21T08:46:21.493Z,37.55
2017-04-21T08:47:00.624Z,36.41
2017-04-21T08:47:41.250Z,36.88
2017-04-21T08:48:22.917Z,39.47
2017-04-21T08:57:35.508Z,45.51
2017-04-21T08:58:17.155Z,41.39
2017-04-21T08:58:58.033Z,41.68
2017-04-21T08:59:38.255Z,40.06
2017-04-21T09:00:18.902Z,39.29
2017-04-21T09:00:59.821Z,39.5
2017-04-21T09:01:40.555Z,40.17
2017-04-21T09:02:21.974Z,39.31
2017-04-21T09:03:03.764Z,39.69
2017-04-21T09:03:45.075Z,39.6
2017-04-21T09:04:25.742Z,39.12
2017-04-21T09:05:06.221Z,40.65
2017-04-21T09:05:47.009Z,40.65
2017-04-21T09:06:27.885Z,39.69
2017-04-21T09:07:08.346Z,39.22
2017-04-21T09:07:48.920Z,39.6
2017-04-21T09:08:29.423Z,40.65
2017-04-21T09:09:10.318Z,37.59
2017-04-21T09:09:51.014Z,40.25
2017-04-21T09:10:31.231Z,48.38